Accueil
METAR-TAF:

METAR-TAF

Aéroports :

Aupaluk, Québec, Canada

latitude: 59-17-48N, longitude: 069-35-59W, altitude: 35 m

Observation

Le bulletin a été fait il y a 5 heures et 6 minutes, à 21:00 UTC
Vent 14 kt de sud/sud-est
Température 4°C
Humidité 93%
Pression 1005 hPa
Visibilité: 19.3 km
Nuages épars à une hauteur de 4400 ft
Ciel couvert à une hauteur de 6600 ft
pluie faible

METAR: CYLA 232100Z 15014KT 12SM -RA SCT044 OVC066 04/03 A2969 RMK SC4AC4 LAST STFD OBS/NEXT 241200UTC SLP059

Heure: 22:06 (02:06 UTC)


TAF: absent

Observations et prévisions météorologiques de plus de 4000 aéroports (messages METAR et TAF).

Les stations disponibles sont représentées par des disques jaunes et rouges sur la carte.

Passer la souris dessus pour voir le nom de la station.

Cliquer dessus pour voir les observations et prévisions météorologiques.

Pour changer de carte: cliquez sur les boutons verts avec une croix noire pour zoomer, sur le bouton vert avec un tiret pour effectuer un zoom arrière, ou sur les flèches vertes pour les cartes adjacentes.


METAR-TAF: